Time;durP1;ratioP1;P1;durP2;ratioP2;P2;SDS_P1;SDS_P2;PMS_P1;PMS_P2;Temp;Humidity;BMP_temperature;BMP_pressure;BME280_temperature;BME280_humidity;BME280_pressure;Samples;Min_cycle;Max_cycle;Signal;HPM_P1;HPM_P2
2021/06/25 00:02:06;;;;;;;15.75;13.98;;;;;;;11.77;100.00;101884.06;3554598;40;20061;-61
2021/06/25 00:04:33;;;;;;;18.42;14.88;;;;;;;11.79;100.00;101884.78;3555365;40;20448;-62
2021/06/25 00:07:01;;;;;;;20.02;15.60;;;;;;;11.77;100.00;101881.34;3560439;40;20073;-61
2021/06/25 00:09:27;;;;;;;19.83;15.93;;;;;;;11.70;100.00;101890.91;3552209;40;20052;-60
2021/06/25 00:11:54;;;;;;;25.45;17.55;;;;;;;11.63;100.00;101884.25;3558672;40;20111;-61
2021/06/25 00:14:22;;;;;;;19.33;15.65;;;;;;;11.71;100.00;101884.53;3554687;40;20596;-62
2021/06/25 00:16:49;;;;;;;22.10;17.08;;;;;;;11.61;100.00;101886.22;3558541;40;20073;-62
2021/06/25 00:19:16;;;;;;;22.27;17.50;;;;;;;11.62;100.00;101888.78;3553997;40;20049;-61
2021/06/25 00:21:42;;;;;;;23.17;17.50;;;;;;;11.56;100.00;101889.28;3556892;40;20326;-62
2021/06/25 00:24:10;;;;;;;19.08;15.43;;;;;;;11.60;100.00;101887.19;3559129;40;20056;-61
2021/06/25 00:26:36;;;;;;;19.48;16.05;;;;;;;11.60;100.00;101885.38;3557984;40;20297;-61
2021/06/25 00:29:03;;;;;;;18.52;15.60;;;;;;;11.55;100.00;101883.00;3557071;40;20560;-61
2021/06/25 00:31:30;;;;;;;19.95;15.80;;;;;;;11.47;100.00;101877.34;3557383;40;20392;-61
2021/06/25 00:33:56;;;;;;;23.48;18.35;;;;;;;11.36;100.00;101872.75;3557286;40;20356;-61
2021/06/25 00:36:23;;;;;;;22.25;17.38;;;;;;;11.29;100.00;101870.66;3557921;40;20055;-61
2021/06/25 00:38:49;;;;;;;26.00;17.90;;;;;;;11.20;100.00;101869.50;3559551;40;20057;-62
2021/06/25 00:41:17;;;;;;;23.70;17.65;;;;;;;11.15;100.00;101864.47;3557175;40;20061;-62
2021/06/25 00:43:43;;;;;;;23.33;16.65;;;;;;;11.18;100.00;101869.63;3557812;40;20053;-61
2021/06/25 00:46:11;;;;;;;24.85;17.98;;;;;;;11.20;100.00;101873.09;3559532;40;20041;-61
2021/06/25 00:48:38;;;;;;;20.63;16.38;;;;;;;11.25;100.00;101872.72;3559739;40;20135;-61
2021/06/25 00:51:05;;;;;;;23.08;16.58;;;;;;;11.22;100.00;101876.50;3556351;40;20112;-62
2021/06/25 00:53:32;;;;;;;20.48;15.40;;;;;;;11.23;100.00;101869.28;3556416;40;20331;-61
2021/06/25 00:55:58;;;;;;;22.80;16.92;;;;;;;11.11;100.00;101867.50;3558380;40;20411;-62
2021/06/25 00:58:26;;;;;;;21.65;17.10;;;;;;;10.99;100.00;101869.28;3554675;40;20299;-62
2021/06/25 01:00:53;;;;;;;22.23;17.13;;;;;;;10.99;100.00;101864.75;3554845;40;20041;-61
2021/06/25 01:03:19;;;;;;;22.48;18.00;;;;;;;10.81;100.00;101871.50;3554286;40;20053;-60
2021/06/25 01:05:46;;;;;;;24.15;18.70;;;;;;;10.67;100.00;101864.44;3556716;40;20044;-61
2021/06/25 01:08:12;;;;;;;26.15;18.80;;;;;;;10.62;100.00;101866.63;3558377;40;20303;-61
2021/06/25 01:10:41;;;;;;;24.02;17.98;;;;;;;10.74;100.00;101865.69;3558931;40;20040;-61
2021/06/25 01:13:09;;;;;;;24.10;18.90;;;;;;;10.75;100.00;101867.44;3559541;40;20051;-62
2021/06/25 01:15:37;;;;;;;28.55;19.30;;;;;;;10.80;100.00;101870.63;3556649;40;20060;-61
2021/06/25 01:18:04;;;;;;;24.05;17.50;;;;;;;10.85;100.00;101864.91;3553910;40;20298;-61
2021/06/25 01:20:32;;;;;;;24.48;18.33;;;;;;;10.85;100.00;101857.72;3552973;40;20049;-61
2021/06/25 01:23:00;;;;;;;24.00;18.27;;;;;;;10.74;100.00;101849.56;3560390;40;20390;-61
2021/06/25 01:25:30;;;;;;;23.67;18.55;;;;;;;10.71;100.00;101855.16;3554248;40;20058;-62
2021/06/25 01:28:00;;;;;;;24.05;18.77;;;;;;;10.69;100.00;101857.13;3556555;40;20076;-61
2021/06/25 01:30:27;;;;;;;;;;;;;;;10.71;100.00;101860.53;3557697;40;20057;-61
2021/06/25 01:32:54;;;;;;;24.08;19.05;;;;;;;10.52;100.00;101859.19;3557644;40;20496;-61
2021/06/25 01:35:21;;;;;;;28.05;19.55;;;;;;;10.45;100.00;101847.16;3553605;40;20334;-61
2021/06/25 01:37:48;;;;;;;24.80;19.05;;;;;;;10.33;100.00;101851.59;3556653;40;20048;-61
2021/06/25 01:40:18;;;;;;;29.13;20.73;;;;;;;10.29;100.00;101849.19;3556665;40;20080;-61
2021/06/25 01:42:46;;;;;;;28.25;20.95;;;;;;;10.20;100.00;101849.84;3558287;40;20449;-61
2021/06/25 01:45:15;;;;;;;27.88;20.63;;;;;;;10.01;100.00;101837.69;3553826;40;20325;-61
2021/06/25 01:47:43;;;;;;;29.42;20.02;;;;;;;9.99;100.00;101826.19;3559811;40;20045;-61
2021/06/25 01:50:12;;;;;;;28.63;21.57;;;;;;;10.02;100.00;101830.50;3555655;40;20311;-60
2021/06/25 01:52:43;;;;;;;31.70;19.73;;;;;;;10.08;100.00;101830.06;3557970;40;20055;-61
2021/06/25 01:55:10;;;;;;;32.50;20.90;;;;;;;10.11;100.00;101833.38;3560420;40;20084;-61
2021/06/25 01:57:38;;;;;;;27.65;19.80;;;;;;;10.21;100.00;101838.97;3558837;40;20060;-61
2021/06/25 02:00:07;;;;;;;27.83;20.20;;;;;;;10.15;100.00;101840.28;3556237;40;20647;-60
2021/06/25 02:02:34;;;;;;;28.50;20.40;;;;;;;10.06;100.00;101838.25;3555888;40;20071;-60
2021/06/25 02:05:01;;;;;;;31.52;20.33;;;;;;;10.09;100.00;101837.19;3556538;40;20581;-61
2021/06/25 02:07:27;;;;;;;29.73;20.83;;;;;;;10.05;100.00;101827.59;3559685;40;20101;-61
2021/06/25 02:09:56;;;;;;;35.00;22.15;;;;;;;9.89;100.00;101830.50;3553062;40;20045;-61
2021/06/25 02:12:22;;;;;;;31.55;20.50;;;;;;;9.98;100.00;101819.09;3556755;40;20190;-62
2021/06/25 02:14:50;;;;;;;35.25;21.63;;;;;;;9.87;100.00;101819.84;3554328;40;20041;-61
2021/06/25 02:17:17;;;;;;;36.15;23.23;;;;;;;9.86;100.00;101818.13;3554078;40;20050;-62
2021/06/25 02:19:44;;;;;;;33.17;22.33;;;;;;;9.89;100.00;101812.53;3556512;40;20049;-61
2021/06/25 02:22:10;;;;;;;38.20;23.00;;;;;;;9.88;100.00;101813.53;3561686;40;20037;-61
2021/06/25 02:24:37;;;;;;;37.42;22.70;;;;;;;9.73;100.00;101825.34;3556818;40;20060;-62
2021/06/25 02:27:05;;;;;;;38.65;24.42;;;;;;;9.73;100.00;101823.53;3556725;40;20044;-61
2021/06/25 02:29:31;;;;;;;33.38;21.77;;;;;;;9.82;100.00;101825.56;3555962;40;20059;-61
2021/06/25 02:31:59;;;;;;;38.78;23.15;;;;;;;9.87;100.00;101825.22;3556303;40;20042;-61
2021/06/25 02:34:26;;;;;;;37.92;23.95;;;;;;;10.00;100.00;101822.56;3553493;40;20236;-61
2021/06/25 02:36:52;;;;;;;34.42;22.20;;;;;;;10.11;100.00;101827.16;3553398;40;20051;-61
2021/06/25 02:39:19;;;;;;;36.38;22.85;;;;;;;10.24;100.00;101819.94;3553340;40;20362;-61
2021/06/25 02:41:47;;;;;;;36.70;22.92;;;;;;;10.12;100.00;101816.28;3555363;40;20061;-61
2021/06/25 02:44:13;;;;;;;35.25;21.88;;;;;;;10.18;100.00;101820.38;3560532;40;20181;-61
2021/06/25 02:46:39;;;;;;;35.70;22.80;;;;;;;10.25;100.00;101812.72;3559740;40;20045;-61
2021/06/25 02:49:07;;;;;;;34.25;23.05;;;;;;;10.21;100.00;101803.16;3556764;40;20040;-61
2021/06/25 02:51:34;;;;;;;38.58;22.80;;;;;;;10.32;100.00;101801.41;3554402;40;20060;-61
2021/06/25 02:54:00;;;;;;;33.90;21.80;;;;;;;10.34;100.00;101795.94;3558063;40;20057;-61
2021/06/25 02:56:27;;;;;;;34.45;22.80;;;;;;;10.39;100.00;101793.75;3565844;40;20053;-61
2021/06/25 02:58:53;;;;;;;32.40;22.10;;;;;;;10.41;100.00;101788.25;3559717;40;20069;-62
2021/06/25 03:01:20;;;;;;;35.03;23.42;;;;;;;10.40;100.00;101786.56;3554016;40;20057;-61
2021/06/25 03:03:46;;;;;;;30.70;21.35;;;;;;;10.41;100.00;101785.56;3556167;40;20041;-61
2021/06/25 03:06:14;;;;;;;30.27;20.98;;;;;;;10.42;100.00;101785.47;3556283;40;20026;-61
2021/06/25 03:08:41;;;;;;;30.27;21.80;;;;;;;10.44;100.00;101786.22;3557146;40;20064;-61
2021/06/25 03:11:07;;;;;;;29.30;20.45;;;;;;;10.50;100.00;101782.22;3555092;40;20061;-61
2021/06/25 03:13:34;;;;;;;32.25;22.20;;;;;;;10.47;100.00;101777.06;3560213;40;20042;-61
2021/06/25 03:16:00;;;;;;;33.40;21.63;;;;;;;10.55;100.00;101773.81;3557063;40;20060;-61
2021/06/25 03:18:27;;;;;;;28.15;19.55;;;;;;;10.74;100.00;101774.16;3556360;40;20147;-62
2021/06/25 03:20:53;;;;;;;31.15;20.98;;;;;;;10.80;100.00;101784.47;3555616;40;20412;-62
2021/06/25 03:23:21;;;;;;;33.05;20.08;;;;;;;10.87;100.00;101777.66;3558599;40;20083;-61
2021/06/25 03:25:48;;;;;;;31.25;21.42;;;;;;;10.83;100.00;101778.00;3556068;40;20063;-61
2021/06/25 03:28:14;;;;;;;29.88;20.05;;;;;;;10.86;100.00;101778.63;3558733;40;20335;-62
2021/06/25 03:30:41;;;;;;;26.23;19.63;;;;;;;10.93;100.00;101780.88;3557565;40;20041;-62
2021/06/25 03:33:08;;;;;;;29.15;20.48;;;;;;;11.02;100.00;101772.06;3556391;40;20111;-62
2021/06/25 03:35:35;;;;;;;28.20;19.92;;;;;;;10.91;100.00;101774.72;3563528;40;20056;-62
2021/06/25 03:38:02;;;;;;;27.85;19.73;;;;;;;10.90;100.00;101764.94;3558868;40;20204;-62
2021/06/25 03:40:34;;;;;;;29.65;20.48;;;;;;;10.97;100.00;101758.13;3556466;40;20061;-61
2021/06/25 03:43:01;;;;;;;27.08;19.20;;;;;;;11.08;100.00;101760.81;3558494;40;20056;-63
2021/06/25 03:45:28;;;;;;;26.33;19.90;;;;;;;10.98;100.00;101763.38;3555567;40;20421;-63
2021/06/25 03:47:54;;;;;;;25.92;18.63;;;;;;;11.20;100.00;101759.91;3557211;40;20116;-61
2021/06/25 03:50:20;;;;;;;30.27;20.70;;;;;;;11.34;100.00;101760.66;3554581;40;20043;-62
2021/06/25 03:52:47;;;;;;;41.33;22.05;;;;;;;11.37;100.00;101763.97;3560925;40;20491;-61
2021/06/25 03:55:14;;;;;;;47.10;24.42;;;;;;;11.29;100.00;101758.34;3565001;40;20047;-62
2021/06/25 03:57:43;;;;;;;44.25;23.52;;;;;;;11.37;100.00;101755.03;3559198;40;20110;-62
2021/06/25 04:00:11;;;;;;;;;;;;;;;11.51;100.00;101754.81;3557671;40;20101;-62
2021/06/25 04:02:37;;;;;;;44.97;24.73;;;;;;;11.53;100.00;101757.41;3560522;40;19977;-61
2021/06/25 04:05:05;;;;;;;46.30;24.70;;;;;;;11.49;100.00;101753.22;3560106;40;20055;-62
2021/06/25 04:07:31;;;;;;;41.60;24.38;;;;;;;11.53;100.00;101760.94;3554986;40;20518;-62
2021/06/25 04:09:58;;;;;;;42.72;23.00;;;;;;;11.57;100.00;101761.56;3554075;40;20048;-63
2021/06/25 04:12:24;;;;;;;40.90;23.70;;;;;;;11.61;100.00;101749.53;3556054;40;20038;-61
2021/06/25 04:14:52;;;;;;;44.95;23.85;;;;;;;11.65;100.00;101758.28;3556075;40;20056;-63
2021/06/25 04:17:18;;;;;;;43.42;23.33;;;;;;;11.75;100.00;101756.56;3553890;40;20058;-66
2021/06/25 04:19:45;;;;;;;42.45;22.67;;;;;;;11.81;100.00;101749.84;3552599;40;20401;-66
2021/06/25 04:22:11;;;;;;;43.85;22.77;;;;;;;11.86;100.00;101751.16;3553839;40;20076;-63
2021/06/25 04:24:38;;;;;;;40.13;23.50;;;;;;;11.97;100.00;101749.47;3555310;40;20060;-62
2021/06/25 04:27:06;;;;;;;39.55;23.55;;;;;;;11.99;100.00;101744.81;3553988;40;20043;-63
2021/06/25 04:29:33;;;;;;;38.35;22.75;;;;;;;12.05;100.00;101744.31;3555308;40;20372;-63
2021/06/25 04:34:32;;;;;;;39.65;23.40;;;;;;;12.21;100.00;101743.94;3603301;22;20056;-62
2021/06/25 04:36:58;;;;;;;41.38;22.95;;;;;;;12.27;100.00;101738.03;3571141;40;20052;-63
2021/06/25 04:39:25;;;;;;;35.72;23.70;;;;;;;12.33;100.00;101736.69;3568580;40;20047;-61
2021/06/25 04:41:51;;;;;;;29.73;21.35;;;;;;;12.32;100.00;101740.34;3572932;40;20045;-63
2021/06/25 04:44:18;;;;;;;27.05;19.83;;;;;;;12.41;100.00;101742.28;3570248;40;20040;-63
2021/06/25 04:46:45;;;;;;;29.85;21.92;;;;;;;12.44;100.00;101733.97;3570330;40;20107;-66
2021/06/25 04:49:12;;;;;;;27.35;20.05;;;;;;;12.46;100.00;101742.78;3569275;40;20070;-62
2021/06/25 04:51:39;;;;;;;24.15;19.73;;;;;;;12.40;100.00;101743.28;3570288;40;20750;-62
2021/06/25 04:54:05;;;;;;;28.00;20.40;;;;;;;12.41;100.00;101736.88;3569960;40;20584;-62
2021/06/25 04:56:32;;;;;;;26.77;22.00;;;;;;;12.35;100.00;101735.56;3574092;40;20036;-62
2021/06/25 04:58:59;;;;;;;26.42;19.85;;;;;;;12.40;100.00;101735.19;3573922;40;20089;-64
2021/06/25 05:01:25;;;;;;;26.95;21.33;;;;;;;12.35;100.00;101734.69;3571617;40;20585;-63
2021/06/25 05:03:51;;;;;;;27.45;21.67;;;;;;;12.32;100.00;101740.34;3572939;40;20054;-61
2021/06/25 05:06:19;;;;;;;28.30;20.30;;;;;;;12.36;100.00;101742.66;3572607;40;20096;-63
2021/06/25 05:08:46;;;;;;;27.13;21.50;;;;;;;12.26;100.00;101737.19;3571094;40;20044;-62
2021/06/25 05:11:12;;;;;;;24.45;20.08;;;;;;;12.52;100.00;101736.03;3569100;40;20111;-61
2021/06/25 05:13:39;;;;;;;27.88;21.25;;;;;;;12.74;100.00;101719.72;3573073;40;20074;-64
2021/06/25 05:16:06;;;;;;;29.17;19.20;;;;;;;12.68;100.00;101719.41;3569905;40;20507;-67
2021/06/25 05:18:32;;;;;;;24.00;19.35;;;;;;;12.77;100.00;101715.91;3566633;40;20051;-62
2021/06/25 05:20:59;;;;;;;25.17;19.63;;;;;;;12.84;100.00;101713.53;3572987;40;20311;-64
2021/06/25 05:23:26;;;;;;;23.85;19.27;;;;;;;13.03;100.00;101718.22;3570645;40;20079;-62
2021/06/25 05:25:54;;;;;;;24.67;18.25;;;;;;;13.09;100.00;101717.72;3572074;40;21517;-63
2021/06/25 05:28:21;;;;;;;25.73;18.58;;;;;;;13.00;100.00;101703.16;3571089;40;20040;-65
2021/06/25 05:30:47;;;;;;;24.85;18.45;;;;;;;13.01;100.00;101709.41;3570365;40;20052;-62
2021/06/25 05:33:14;;;;;;;24.45;17.42;;;;;;;13.08;100.00;101713.31;3571973;40;20064;-63
2021/06/25 05:35:40;;;;;;;26.70;18.13;;;;;;;12.97;100.00;101709.66;3571002;40;20052;-62
2021/06/25 05:38:11;;;;;;;24.10;17.48;;;;;;;13.05;100.00;101706.31;3571114;40;20053;-61
2021/06/25 05:40:38;;;;;;;21.73;17.60;;;;;;;13.05;100.00;101710.88;3572229;40;20403;-64
2021/06/25 05:43:05;;;;;;;31.63;17.92;;;;;;;13.07;100.00;101700.78;3571679;39;20315;-66
2021/06/25 05:45:33;;;;;;;29.02;17.83;;;;;;;13.29;100.00;101703.34;3572561;40;20042;-63
2021/06/25 05:47:59;;;;;;;31.20;19.20;;;;;;;13.43;100.00;101704.03;3573253;40;20088;-63
2021/06/25 05:50:26;;;;;;;35.72;18.80;;;;;;;13.43;100.00;101704.88;3570040;40;20064;-62
2021/06/25 05:52:53;;;;;;;37.25;18.30;;;;;;;13.47;100.00;101700.03;3570583;40;20304;-63
2021/06/25 05:55:20;;;;;;;25.80;17.35;;;;;;;13.33;100.00;101698.53;3573443;40;20040;-65
2021/06/25 05:57:50;;;;;;;20.20;15.63;;;;;;;13.29;100.00;101697.06;3574823;40;20059;-65
2021/06/25 06:00:19;;;;;;;26.25;16.35;;;;;;;13.49;100.00;101692.66;3572223;40;20099;-64
2021/06/25 06:02:46;;;;;;;22.60;17.42;;;;;;;13.38;100.00;101687.34;3572061;40;20076;-62
2021/06/25 06:05:13;;;;;;;23.17;17.25;;;;;;;13.55;100.00;101684.00;3571845;40;20059;-63
2021/06/25 06:07:40;;;;;;;23.33;17.60;;;;;;;13.90;100.00;101685.44;3576400;40;20059;-65
2021/06/25 06:10:09;;;;;;;24.88;17.95;;;;;;;13.88;100.00;101691.97;3573117;40;20430;-65
2021/06/25 06:12:35;;;;;;;24.92;16.83;;;;;;;14.04;100.00;101696.84;3574069;40;20052;-64
2021/06/25 06:15:04;;;;;;;21.70;17.13;;;;;;;13.82;100.00;101694.25;3571257;40;20052;-63
2021/06/25 06:17:30;;;;;;;25.10;17.33;;;;;;;13.66;100.00;101694.75;3574434;40;20048;-63
2021/06/25 06:19:57;;;;;;;24.38;17.95;;;;;;;13.64;100.00;101688.59;3573567;40;20068;-61
2021/06/25 06:33:32;;;;;;;22.00;16.77;;;;;;;13.70;100.00;101695.31;3571901;40;20141;-64
2021/06/25 06:35:59;;;;;;;22.48;17.35;;;;;;;13.77;100.00;101695.63;3572443;40;20393;-65
2021/06/25 06:38:27;;;;;;;24.17;17.23;;;;;;;13.87;100.00;101691.13;3569845;40;20137;-64
2021/06/25 06:40:53;;;;;;;22.65;18.00;;;;;;;13.99;100.00;101695.41;3570843;40;20394;-63
2021/06/25 06:43:20;;;;;;;25.27;17.33;;;;;;;14.17;100.00;101700.16;3571713;40;20052;-64
2021/06/25 06:45:48;;;;;;;24.83;17.52;;;;;;;14.40;100.00;101697.19;3570373;40;20080;-63
2021/06/25 06:48:14;;;;;;;25.77;17.25;;;;;;;14.67;100.00;101702.81;3576557;40;20114;-68
2021/06/25 06:50:41;;;;;;;24.83;17.75;;;;;;;14.45;100.00;101700.34;3581493;40;20036;-67
2021/06/25 06:53:12;;;;;;;20.83;16.17;;;;;;;14.75;100.00;101696.69;3580738;40;20065;-63
2021/06/25 06:55:43;;;;;;;23.27;16.75;;;;;;;14.85;100.00;101707.53;3573812;40;20060;-65
2021/06/25 06:58:10;;;;;;;21.30;16.52;;;;;;;14.95;100.00;101708.38;3580378;40;20044;-62
2021/06/25 07:00:37;;;;;;;25.42;17.80;;;;;;;14.80;100.00;101702.53;3582142;40;20044;-65
2021/06/25 07:03:05;;;;;;;23.52;16.80;;;;;;;15.13;100.00;101699.50;3576350;40;20048;-66
2021/06/25 07:05:32;;;;;;;23.63;18.13;;;;;;;15.07;100.00;101699.09;3582267;40;20068;-63
2021/06/25 07:07:58;;;;;;;22.63;17.20;;;;;;;15.10;100.00;101705.22;3581184;40;20059;-64
2021/06/25 07:10:25;;;;;;;31.45;18.48;;;;;;;15.12;100.00;101703.22;3581164;40;20051;-64
2021/06/25 07:12:52;;;;;;;26.95;19.15;;;;;;;15.26;100.00;101704.63;3581015;40;20060;-64
2021/06/25 07:15:18;;;;;;;27.73;19.45;;;;;;;15.40;100.00;101701.47;3580409;40;20052;-66
2021/06/25 07:17:45;;;;;;;31.27;18.13;;;;;;;15.76;100.00;101707.88;3581587;40;20040;-63
2021/06/25 07:20:13;;;;;;;29.45;19.35;;;;;;;15.99;100.00;101706.66;3582027;40;20053;-64
2021/06/25 07:22:40;;;;;;;32.67;20.10;;;;;;;16.42;100.00;101703.25;3581535;40;20052;-64
2021/06/25 07:25:09;;;;;;;30.60;19.00;;;;;;;16.50;100.00;101701.63;3580811;40;20056;-64
2021/06/25 07:27:36;;;;;;;33.13;19.50;;;;;;;16.45;100.00;101702.09;3582080;40;20064;-63
2021/06/25 07:30:04;;;;;;;32.53;19.17;;;;;;;16.52;100.00;101702.31;3580738;40;20063;-66
2021/06/25 07:32:30;;;;;;;28.48;19.35;;;;;;;16.56;100.00;101698.28;3580597;40;20045;-62
2021/06/25 07:34:56;;;;;;;32.97;19.70;;;;;;;16.44;100.00;101694.94;3580786;40;20417;-62
2021/06/25 07:37:24;;;;;;;38.40;20.45;;;;;;;16.62;100.00;101694.94;3580981;40;20085;-61
2021/06/25 07:39:51;;;;;;;29.98;20.17;;;;;;;16.50;100.00;101688.03;3580952;40;20344;-64
2021/06/25 07:42:18;;;;;;;33.25;20.15;;;;;;;16.30;100.00;101682.75;3580197;40;20100;-66
2021/06/25 07:44:45;;;;;;;32.50;20.73;;;;;;;16.36;100.00;101690.28;3580950;40;20039;-66
2021/06/25 07:47:11;;;;;;;24.77;18.75;;;;;;;16.37;100.00;101692.00;3580018;40;20336;-63
2021/06/25 07:49:37;;;;;;;31.52;20.02;;;;;;;16.53;100.00;101698.59;3580655;40;20040;-64
2021/06/25 07:52:05;;;;;;;26.38;20.33;;;;;;;16.71;100.00;101691.31;3579288;40;20064;-63
2021/06/25 07:54:32;;;;;;;28.13;18.92;;;;;;;16.72;100.00;101698.44;3581545;40;20065;-62
2021/06/25 07:56:59;;;;;;;22.45;18.20;;;;;;;16.45;100.00;101697.50;3581055;40;20072;-64
2021/06/25 07:59:25;;;;;;;25.75;19.25;;;;;;;16.67;100.00;101694.50;3582116;40;20049;-65
2021/06/25 08:01:52;;;;;;;26.58;19.92;;;;;;;16.89;100.00;101683.16;3581873;40;20055;-63
2021/06/25 08:04:19;;;;;;;30.95;19.40;;;;;;;16.91;100.00;101691.16;3581955;40;20040;-62
2021/06/25 08:06:45;;;;;;;29.83;20.70;;;;;;;16.69;100.00;101687.88;3581760;40;20476;-63
2021/06/25 08:09:11;;;;;;;27.40;19.75;;;;;;;16.83;100.00;101683.75;3578166;40;20075;-64
2021/06/25 08:11:39;;;;;;;31.58;22.17;;;;;;;17.09;100.00;101694.72;3580698;40;20146;-66
2021/06/25 08:14:07;;;;;;;33.25;20.63;;;;;;;16.98;100.00;101689.53;3581794;40;20477;-66
2021/06/25 08:16:34;;;;;;;29.35;21.25;;;;;;;17.42;100.00;101692.19;3581552;40;20044;-63
2021/06/25 08:19:01;;;;;;;26.08;20.15;;;;;;;17.38;100.00;101693.53;3581400;40;20048;-63
2021/06/25 08:21:28;;;;;;;28.85;20.48;;;;;;;17.63;100.00;101690.94;3579956;40;20381;-64
2021/06/25 08:23:55;;;;;;;30.45;21.30;;;;;;;17.65;100.00;101688.91;3580972;40;20089;-65
2021/06/25 08:26:22;;;;;;;26.00;20.10;;;;;;;17.40;100.00;101688.81;3579136;40;20406;-66
2021/06/25 08:28:50;;;;;;;32.65;21.90;;;;;;;17.52;100.00;101690.22;3581919;40;20076;-62
2021/06/25 08:31:17;;;;;;;33.42;22.58;;;;;;;17.57;100.00;101683.44;3581148;40;20418;-61
2021/06/25 08:33:43;;;;;;;28.77;21.55;;;;;;;17.28;100.00;101671.03;3582700;40;20048;-62
2021/06/25 08:36:10;;;;;;;28.63;22.23;;;;;;;17.26;100.00;101676.63;3580692;40;20096;-62
2021/06/25 08:38:38;;;;;;;30.73;23.42;;;;;;;17.08;100.00;101684.84;3582416;40;20427;-66
2021/06/25 08:41:05;;;;;;;34.58;23.35;;;;;;;16.97;100.00;101682.38;3581406;40;20052;-64
2021/06/25 08:43:31;;;;;;;34.63;23.50;;;;;;;17.00;100.00;101682.03;3582048;40;20048;-63
2021/06/25 08:46:00;;;;;;;36.63;24.88;;;;;;;16.74;100.00;101682.84;3581953;40;20310;-64
2021/06/25 08:48:27;;;;;;;35.88;25.45;;;;;;;16.75;100.00;101676.38;3579963;40;20599;-62
2021/06/25 08:50:56;;;;;;;36.72;25.80;;;;;;;16.88;100.00;101683.31;3581287;40;20068;-62
2021/06/25 08:53:23;;;;;;;35.67;23.35;;;;;;;16.91;100.00;101680.28;3581091;40;20072;-64
2021/06/25 08:55:49;;;;;;;35.63;24.35;;;;;;;16.87;100.00;101678.84;3582058;40;20041;-63
2021/06/25 08:58:18;;;;;;;36.42;24.15;;;;;;;16.93;100.00;101684.56;3579306;40;20084;-62
2021/06/25 09:00:45;;;;;;;35.87;24.80;;;;;;;16.99;100.00;101688.53;3582537;40;20077;-63
2021/06/25 09:03:21;;;;;;;42.38;27.08;;;;;;;16.99;100.00;101686.63;3581146;40;20287;-62
2021/06/25 09:05:48;;;;;;;39.17;27.60;;;;;;;16.92;100.00;101684.72;3581676;40;20415;-65
2021/06/25 09:08:27;;;;;;;40.38;25.85;;;;;;;16.95;100.00;101687.13;3581028;40;20627;-64
2021/06/25 09:10:56;;;;;;;36.35;25.90;;;;;;;16.97;100.00;101682.38;3579570;40;20059;-63
2021/06/25 09:13:37;;;;;;;34.03;24.35;;;;;;;17.11;100.00;101676.34;3579691;40;20048;-62
2021/06/25 09:16:19;;;;;;;31.77;23.92;;;;;;;17.12;100.00;101675.34;3580560;40;20061;-67
2021/06/25 09:19:00;;;;;;;38.92;25.83;;;;;;;16.88;100.00;101669.72;3579569;40;20107;-64
2021/06/25 09:21:27;;;;;;;32.83;25.10;;;;;;;16.85;100.00;101668.13;3579831;40;20080;-65
2021/06/25 09:23:54;;;;;;;35.30;27.20;;;;;;;16.88;100.00;101672.44;3581397;40;20059;-67
2021/06/25 09:26:23;;;;;;;38.78;26.45;;;;;;;16.91;100.00;101656.66;3581134;40;20046;-61
2021/06/25 09:28:51;;;;;;;37.90;26.80;;;;;;;17.20;100.00;101663.66;3580280;40;20033;-62
2021/06/25 09:31:19;;;;;;;35.03;26.20;;;;;;;17.05;100.00;101666.13;3579540;40;20052;-63
2021/06/25 09:33:47;;;;;;;44.53;25.98;;;;;;;16.95;100.00;101662.66;3580996;40;20075;-63
2021/06/25 09:36:23;;;;;;;38.90;26.13;;;;;;;17.16;100.00;101662.28;3580438;40;20060;-65
2021/06/25 09:38:58;;;;;;;36.25;25.58;;;;;;;17.22;100.00;101669.78;3580688;40;20449;-63
2021/06/25 09:41:25;;;;;;;48.92;28.17;;;;;;;17.30;100.00;101663.56;3580945;40;20044;-62
2021/06/25 09:43:56;;;;;;;52.67;28.80;;;;;;;17.56;100.00;101663.50;3580209;40;20058;-62
2021/06/25 09:46:28;;;;;;;40.03;26.08;;;;;;;17.65;100.00;101657.13;3580248;40;20044;-65
2021/06/25 09:48:56;;;;;;;36.80;25.70;;;;;;;17.71;100.00;101655.63;3580866;40;20413;-63
2021/06/25 09:51:24;;;;;;;42.75;28.00;;;;;;;17.67;100.00;101649.63;3580097;40;20051;-64
2021/06/25 09:54:08;;;;;;;38.20;26.67;;;;;;;17.68;100.00;101648.63;3579768;40;20338;-62
2021/06/25 09:56:39;;;;;;;38.17;26.98;;;;;;;18.36;100.00;101648.69;3578195;40;20291;-65
2021/06/25 10:02:27;;;;;;;41.53;28.35;;;;;;;18.75;100.00;101650.72;3579650;40;20184;-65
2021/06/25 10:04:55;;;;;;;36.92;25.70;;;;;;;18.93;100.00;101639.66;3581116;40;20051;-65
2021/06/25 10:07:25;;;;;;;34.28;25.90;;;;;;;18.91;100.00;101628.91;3580153;40;20623;-64
2021/06/25 10:09:54;;;;;;;37.75;26.55;;;;;;;19.53;100.00;101635.59;3580692;40;20060;-64
2021/06/25 10:12:22;;;;;;;36.70;27.92;;;;;;;18.98;100.00;101634.56;3580484;40;20062;-65
2021/06/25 10:14:50;;;;;;;41.10;28.05;;;;;;;19.68;100.00;101629.41;3580168;40;20361;-64
2021/06/25 10:17:17;;;;;;;35.05;25.15;;;;;;;19.58;100.00;101635.94;3580624;40;20070;-64
2021/06/25 10:19:45;;;;;;;35.90;24.95;;;;;;;19.84;100.00;101632.06;3581624;40;20063;-64
2021/06/25 10:22:13;;;;;;;31.08;24.23;;;;;;;19.28;100.00;101631.25;3579973;40;20072;-62
2021/06/25 10:24:43;;;;;;;42.63;25.92;;;;;;;19.38;100.00;101635.47;3580116;40;20087;-64
2021/06/25 10:27:11;;;;;;;34.03;25.52;;;;;;;19.29;100.00;101632.94;3580517;40;20308;-62
2021/06/25 10:32:08;;;;;;;33.97;25.00;;;;;;;20.74;100.00;101622.41;3604863;22;20310;-63
2021/06/25 10:34:35;;;;;;;35.97;24.95;;;;;;;20.67;100.00;101616.00;3579777;40;20073;-63
2021/06/25 10:37:04;;;;;;;34.67;25.13;;;;;;;20.44;100.00;101625.03;3579039;40;20403;-66
2021/06/25 10:39:32;;;;;;;35.78;25.02;;;;;;;19.98;100.00;101632.34;3580305;40;20040;-63
2021/06/25 10:42:02;;;;;;;31.83;24.63;;;;;;;19.75;100.00;101635.84;3581208;40;20284;-64
2021/06/25 10:44:34;;;;;;;33.55;25.67;;;;;;;19.79;100.00;101645.44;3579894;40;20049;-64
2021/06/25 10:47:15;;;;;;;32.17;24.58;;;;;;;20.24;100.00;101626.56;3579964;40;20381;-64
2021/06/25 10:50:20;;;;;;;34.63;24.75;;;;;;;20.04;100.00;101632.50;3578838;40;20059;-63
2021/06/25 10:53:11;;;;;;;36.42;24.20;;;;;;;19.97;100.00;101641.59;3580085;40;20037;-64
2021/06/25 10:55:45;;;;;;;31.95;24.58;;;;;;;20.63;100.00;101642.84;3580670;40;20412;-64
2021/06/25 10:58:21;;;;;;;34.78;24.90;;;;;;;20.36;100.00;101627.84;3579186;40;20088;-64
2021/06/25 11:03:30;;;;;;;31.38;23.65;;;;;;;20.95;100.00;101634.53;3604882;22;20048;-64
2021/06/25 11:05:57;;;;;;;34.88;24.27;;;;;;;21.19;100.00;101630.72;3591192;39;20052;-65
2021/06/25 11:08:23;;;;;;;29.80;24.25;;;;;;;20.40;100.00;101633.78;3590331;40;20040;-65
2021/06/25 11:10:51;;;;;;;31.08;24.90;;;;;;;20.38;100.00;101633.97;3590937;40;20044;-65
2021/06/25 11:13:21;;;;;;;36.25;27.33;;;;;;;20.29;100.00;101635.91;3589343;40;20044;-63
2021/06/25 11:15:49;;;;;;;35.13;24.98;;;;;;;20.24;100.00;101637.47;3589100;40;20121;-63
2021/06/25 11:18:16;;;;;;;31.08;24.42;;;;;;;20.49;100.00;101632.69;3589019;40;20048;-64
2021/06/25 11:20:52;;;;;;;34.42;26.65;;;;;;;19.93;100.00;101636.50;3589293;40;20052;-63
2021/06/25 11:23:22;;;;;;;41.85;26.67;;;;;;;20.33;100.00;101628.19;3589841;39;20051;-65
2021/06/25 11:25:52;;;;;;;31.50;24.58;;;;;;;20.47;100.00;101629.28;3589562;40;20403;-64
2021/06/25 11:28:32;;;;;;;34.03;26.55;;;;;;;20.09;100.00;101623.75;3590284;39;20037;-65